CSN3107 ZSPD-ZSAM
Flight info
| Callsign | CSN3107 |
|---|---|
| Flight time | 1h 25m |
| Altitude | 25600 |
| Route | NXD82D NXD W131 AKDIM A470 ENVEN ENVEN8X |
| Aircraft | A20N/M-SDE2E3FGHIRWXY/LB1 |
Departure
| Time | 2026-05-04 14:24 |
|---|---|
| Airport | Shanghai Pudong International Airport (ZSPD) |
Arrival
| Time | 2026-05-04 15:50 |
|---|---|
| Airport | Xiamen Gaoqi International Airport (ZSAM) |
| Time | Latitude | Longitude | Altitude | Speed | Heading |
|---|---|---|---|---|---|
| 2026-05-04 14:01 | 31.13968 | 121.80290 | 26 ft | 0 kts | 252° |
| 2026-05-04 14:11 | 31.13970 | 121.80296 | 26 ft | 2 kts | 250° |
| 2026-05-04 14:12 | 31.13975 | 121.80314 | 27 ft | 2 kts | 252° |
| 2026-05-04 14:12 | 31.13980 | 121.80332 | 27 ft | 2 kts | 251° |
| 2026-05-04 14:12 | 31.13976 | 121.80368 | 27 ft | 2 kts | 320° |
| 2026-05-04 14:13 | 31.13962 | 121.80378 | 28 ft | 2 kts | 335° |
| 2026-05-04 14:13 | 31.13957 | 121.80381 | 26 ft | 0 kts | 340° |
| 2026-05-04 14:15 | 31.13961 | 121.80379 | 27 ft | 3 kts | 340° |
| 2026-05-04 14:16 | 31.14063 | 121.80341 | 26 ft | 8 kts | 341° |
| 2026-05-04 14:16 | 31.14116 | 121.80321 | 26 ft | 8 kts | 341° |
| 2026-05-04 14:17 | 31.14175 | 121.80199 | 27 ft | 16 kts | 251° |
| 2026-05-04 14:17 | 31.14141 | 121.80076 | 27 ft | 16 kts | 252° |
| 2026-05-04 14:17 | 31.14095 | 121.79909 | 28 ft | 9 kts | 252° |
| 2026-05-04 14:18 | 31.14076 | 121.79841 | 28 ft | 9 kts | 252° |
| 2026-05-04 14:18 | 31.14041 | 121.79677 | 27 ft | 10 kts | 254° |
| 2026-05-04 14:19 | 31.14111 | 121.79578 | 26 ft | 12 kts | 342° |
| 2026-05-04 14:19 | 31.14224 | 121.79535 | 26 ft | 19 kts | 341° |
| 2026-05-04 14:19 | 31.14351 | 121.79489 | 27 ft | 19 kts | 342° |
| 2026-05-04 14:19 | 31.14477 | 121.79441 | 26 ft | 19 kts | 343° |
| 2026-05-04 14:20 | 31.14598 | 121.79394 | 26 ft | 18 kts | 342° |
| 2026-05-04 14:20 | 31.14679 | 121.79364 | 26 ft | 18 kts | 342° |
| 2026-05-04 14:20 | 31.14835 | 121.79305 | 26 ft | 18 kts | 343° |
| 2026-05-04 14:21 | 31.15030 | 121.79228 | 27 ft | 18 kts | 341° |
| 2026-05-04 14:21 | 31.15145 | 121.79188 | 26 ft | 17 kts | 343° |
| 2026-05-04 14:21 | 31.15259 | 121.79145 | 27 ft | 17 kts | 341° |
| 2026-05-04 14:21 | 31.15371 | 121.79102 | 26 ft | 17 kts | 344° |
| 2026-05-04 14:22 | 31.15483 | 121.79059 | 25 ft | 17 kts | 342° |
| 2026-05-04 14:22 | 31.15594 | 121.79018 | 25 ft | 17 kts | 342° |
| 2026-05-04 14:22 | 31.15702 | 121.78977 | 27 ft | 16 kts | 342° |
| 2026-05-04 14:22 | 31.15809 | 121.78937 | 26 ft | 16 kts | 342° |
| 2026-05-04 14:23 | 31.15956 | 121.78808 | 26 ft | 13 kts | 257° |
| 2026-05-04 14:23 | 31.15924 | 121.78703 | 25 ft | 13 kts | 233° |
| 2026-05-04 14:23 | 31.15844 | 121.78706 | 26 ft | 16 kts | 167° |
| 2026-05-04 14:24 | 31.15566 | 121.78814 | 26 ft | 75 kts | 162° |
| 2026-05-04 14:24 | 31.14863 | 121.79084 | 28 ft | 137 kts | 161° |
| 2026-05-04 14:24 | 31.13828 | 121.79460 | 240 ft | 165 kts | 161° |
| 2026-05-04 14:24 | 31.12731 | 121.79859 | 927 ft | 159 kts | 163° |
| 2026-05-04 14:25 | 31.11713 | 121.80216 | 1890 ft | 149 kts | 166° |
| 2026-05-04 14:25 | 31.09431 | 121.80985 | 2938 ft | 204 kts | 166° |
| 2026-05-04 14:25 | 31.07971 | 121.81474 | 3138 ft | 233 kts | 166° |
| 2026-05-04 14:26 | 31.06345 | 121.82023 | 2987 ft | 256 kts | 166° |
| 2026-05-04 14:26 | 31.04582 | 121.82623 | 2964 ft | 262 kts | 166° |
| 2026-05-04 14:26 | 31.02843 | 121.83130 | 2993 ft | 260 kts | 174° |
| 2026-05-04 14:26 | 31.01050 | 121.83020 | 2996 ft | 255 kts | 197° |
| 2026-05-04 14:27 | 30.99521 | 121.82065 | 2997 ft | 253 kts | 222° |
| 2026-05-04 14:27 | 30.98494 | 121.80415 | 3123 ft | 256 kts | 246° |
| 2026-05-04 14:27 | 30.97875 | 121.78443 | 3810 ft | 260 kts | 252° |
| 2026-05-04 14:27 | 30.97336 | 121.76439 | 4786 ft | 260 kts | 253° |
| 2026-05-04 14:28 | 30.96795 | 121.74410 | 5670 ft | 264 kts | 254° |
| 2026-05-04 14:28 | 30.96350 | 121.72315 | 6524 ft | 269 kts | 266° |
| 2026-05-04 14:28 | 30.96450 | 121.70106 | 7395 ft | 270 kts | 281° |
| 2026-05-04 14:28 | 30.96814 | 121.67978 | 8318 ft | 272 kts | 284° |
| 2026-05-04 14:29 | 30.97654 | 121.63614 | 10122 ft | 280 kts | 284° |
| 2026-05-04 14:29 | 30.98552 | 121.58862 | 10975 ft | 319 kts | 283° |
| 2026-05-04 14:30 | 30.99042 | 121.56226 | 11282 ft | 341 kts | 283° |
| 2026-05-04 14:30 | 30.99555 | 121.53448 | 11715 ft | 357 kts | 283° |
| 2026-05-04 14:30 | 31.00619 | 121.47650 | 13199 ft | 368 kts | 282° |
| 2026-05-04 14:31 | 31.01157 | 121.44724 | 13948 ft | 372 kts | 282° |
| 2026-05-04 14:31 | 31.02240 | 121.38831 | 15318 ft | 376 kts | 282° |
| 2026-05-04 14:32 | 31.03296 | 121.33073 | 16667 ft | 380 kts | 281° |
| 2026-05-04 14:32 | 31.03851 | 121.30043 | 17351 ft | 383 kts | 281° |
| 2026-05-04 14:32 | 31.04408 | 121.26994 | 18029 ft | 385 kts | 281° |
| 2026-05-04 14:32 | 31.04966 | 121.23935 | 18644 ft | 387 kts | 281° |
| 2026-05-04 14:33 | 31.05528 | 121.20855 | 19234 ft | 389 kts | 281° |
| 2026-05-04 14:33 | 31.06089 | 121.17772 | 19846 ft | 390 kts | 281° |
| 2026-05-04 14:33 | 31.06583 | 121.14662 | 20450 ft | 390 kts | 276° |
| 2026-05-04 14:33 | 31.06595 | 121.11490 | 21034 ft | 391 kts | 263° |
| 2026-05-04 14:34 | 31.06033 | 121.08383 | 21602 ft | 393 kts | 256° |
| 2026-05-04 14:34 | 31.05285 | 121.05301 | 22148 ft | 395 kts | 255° |
| 2026-05-04 14:34 | 31.04506 | 121.02220 | 22680 ft | 397 kts | 255° |
| 2026-05-04 14:34 | 31.03726 | 120.99129 | 23198 ft | 399 kts | 255° |
| 2026-05-04 14:35 | 31.02943 | 120.96010 | 23699 ft | 400 kts | 255° |
| 2026-05-04 14:35 | 31.02163 | 120.92885 | 24112 ft | 402 kts | 255° |
| 2026-05-04 14:35 | 31.01381 | 120.89750 | 24528 ft | 403 kts | 255° |
| 2026-05-04 14:35 | 31.00596 | 120.86597 | 24960 ft | 405 kts | 255° |
| 2026-05-04 14:36 | 30.99811 | 120.83446 | 25381 ft | 406 kts | 255° |
| 2026-05-04 14:36 | 30.99022 | 120.80284 | 25635 ft | 408 kts | 255° |
| 2026-05-04 14:36 | 30.98224 | 120.77083 | 25679 ft | 414 kts | 255° |
| 2026-05-04 14:36 | 30.97418 | 120.73856 | 25683 ft | 416 kts | 255° |
| 2026-05-04 14:37 | 30.96610 | 120.70624 | 25681 ft | 416 kts | 255° |
| 2026-05-04 14:37 | 30.95799 | 120.67384 | 25679 ft | 416 kts | 255° |
| 2026-05-04 14:37 | 30.94988 | 120.64150 | 25685 ft | 416 kts | 255° |
| 2026-05-04 14:37 | 30.94179 | 120.60926 | 25679 ft | 416 kts | 255° |
| 2026-05-04 14:38 | 30.93365 | 120.57687 | 25678 ft | 415 kts | 255° |
| 2026-05-04 14:38 | 30.92553 | 120.54457 | 25676 ft | 416 kts | 255° |
| 2026-05-04 14:38 | 30.91741 | 120.51230 | 25683 ft | 416 kts | 255° |
| 2026-05-04 14:38 | 30.90866 | 120.47969 | 25682 ft | 417 kts | 252° |
| 2026-05-04 14:39 | 30.89652 | 120.44901 | 25679 ft | 420 kts | 243° |
| 2026-05-04 14:39 | 30.87970 | 120.42165 | 25676 ft | 425 kts | 232° |
| 2026-05-04 14:39 | 30.85808 | 120.39781 | 25679 ft | 430 kts | 225° |
| 2026-05-04 14:40 | 30.80996 | 120.35593 | 25678 ft | 433 kts | 220° |
| 2026-05-04 14:40 | 30.78509 | 120.33607 | 25679 ft | 433 kts | 219° |
| 2026-05-04 14:40 | 30.76021 | 120.31637 | 25676 ft | 433 kts | 219° |
| 2026-05-04 14:40 | 30.73500 | 120.29630 | 25677 ft | 433 kts | 220° |
| 2026-05-04 14:41 | 30.71026 | 120.27639 | 25677 ft | 432 kts | 220° |
| 2026-05-04 14:41 | 30.68567 | 120.25643 | 25676 ft | 432 kts | 220° |
| 2026-05-04 14:41 | 30.63651 | 120.21620 | 25676 ft | 431 kts | 220° |
| 2026-05-04 14:42 | 30.59121 | 120.17905 | 25676 ft | 431 kts | 220° |
| 2026-05-04 14:42 | 30.56671 | 120.15897 | 25676 ft | 431 kts | 220° |
| 2026-05-04 14:42 | 30.54186 | 120.13862 | 25675 ft | 431 kts | 220° |
| 2026-05-04 14:43 | 30.51772 | 120.11888 | 25676 ft | 431 kts | 220° |
| 2026-05-04 14:43 | 30.49324 | 120.09888 | 25679 ft | 430 kts | 220° |
| 2026-05-04 14:43 | 30.46869 | 120.07884 | 25679 ft | 430 kts | 220° |
| 2026-05-04 14:43 | 30.44410 | 120.05909 | 25677 ft | 432 kts | 218° |
| 2026-05-04 14:44 | 30.41841 | 120.04079 | 25684 ft | 433 kts | 217° |
| 2026-05-04 14:44 | 30.39252 | 120.02298 | 25681 ft | 433 kts | 216° |
| 2026-05-04 14:44 | 30.36639 | 120.00539 | 25685 ft | 433 kts | 216° |
| 2026-05-04 14:44 | 30.34023 | 119.98798 | 25684 ft | 433 kts | 216° |
| 2026-05-04 14:45 | 30.31406 | 119.97064 | 25685 ft | 433 kts | 216° |
| 2026-05-04 14:45 | 30.28789 | 119.95331 | 25686 ft | 433 kts | 215° |
| 2026-05-04 14:45 | 30.26173 | 119.93598 | 25689 ft | 433 kts | 216° |
| 2026-05-04 14:45 | 30.23564 | 119.91868 | 25687 ft | 432 kts | 216° |
| 2026-05-04 14:46 | 30.20951 | 119.90134 | 25688 ft | 432 kts | 216° |
| 2026-05-04 14:46 | 30.18344 | 119.88404 | 25691 ft | 432 kts | 216° |
| 2026-05-04 14:46 | 30.15736 | 119.86673 | 25694 ft | 432 kts | 216° |
| 2026-05-04 14:46 | 30.13133 | 119.84946 | 25693 ft | 431 kts | 216° |
| 2026-05-04 14:47 | 30.10531 | 119.83221 | 25698 ft | 431 kts | 216° |
| 2026-05-04 14:47 | 30.07967 | 119.81524 | 25693 ft | 430 kts | 216° |
| 2026-05-04 14:47 | 30.05373 | 119.79805 | 25702 ft | 430 kts | 216° |
| 2026-05-04 14:47 | 30.02783 | 119.78078 | 25700 ft | 429 kts | 216° |
| 2026-05-04 14:48 | 30.00204 | 119.76347 | 25695 ft | 429 kts | 216° |
| 2026-05-04 14:48 | 29.97626 | 119.74611 | 25700 ft | 428 kts | 216° |
| 2026-05-04 14:48 | 29.95052 | 119.72877 | 25699 ft | 427 kts | 216° |
| 2026-05-04 14:48 | 29.92484 | 119.71148 | 25702 ft | 426 kts | 216° |
| 2026-05-04 14:49 | 29.89921 | 119.69426 | 25705 ft | 425 kts | 216° |
| 2026-05-04 14:49 | 29.87272 | 119.67880 | 25704 ft | 431 kts | 209° |
| 2026-05-04 14:49 | 29.84393 | 119.66804 | 25706 ft | 440 kts | 200° |
| 2026-05-04 14:49 | 29.81348 | 119.66267 | 25706 ft | 446 kts | 194° |
| 2026-05-04 14:50 | 29.78244 | 119.65961 | 25707 ft | 449 kts | 191° |
| 2026-05-04 14:50 | 29.75116 | 119.65764 | 25708 ft | 450 kts | 191° |
| 2026-05-04 14:50 | 29.71998 | 119.65594 | 25708 ft | 449 kts | 190° |
| 2026-05-04 14:50 | 29.68861 | 119.65421 | 25709 ft | 449 kts | 191° |
| 2026-05-04 14:51 | 29.65743 | 119.65238 | 25708 ft | 449 kts | 191° |
| 2026-05-04 14:51 | 29.62659 | 119.65053 | 25708 ft | 449 kts | 190° |
| 2026-05-04 14:51 | 29.59527 | 119.64924 | 25706 ft | 450 kts | 189° |
| 2026-05-04 14:51 | 29.56392 | 119.64839 | 25710 ft | 450 kts | 189° |
| 2026-05-04 14:52 | 29.53263 | 119.64742 | 25707 ft | 449 kts | 189° |
| 2026-05-04 14:52 | 29.50145 | 119.64594 | 25708 ft | 448 kts | 190° |
| 2026-05-04 14:52 | 29.47031 | 119.64414 | 25717 ft | 448 kts | 191° |
| 2026-05-04 14:52 | 29.44927 | 119.64282 | 25716 ft | 448 kts | 191° |
| 2026-05-04 14:53 | 29.41817 | 119.64083 | 25713 ft | 447 kts | 191° |
| 2026-05-04 14:53 | 29.37696 | 119.63817 | 25713 ft | 448 kts | 191° |
| 2026-05-04 14:53 | 29.35591 | 119.63683 | 25712 ft | 448 kts | 191° |
| 2026-05-04 14:53 | 29.31453 | 119.63423 | 25713 ft | 449 kts | 191° |
| 2026-05-04 14:54 | 29.29382 | 119.63295 | 25711 ft | 449 kts | 191° |
| 2026-05-04 14:54 | 29.26266 | 119.63104 | 25712 ft | 449 kts | 191° |
| 2026-05-04 14:54 | 29.23143 | 119.62914 | 25712 ft | 449 kts | 191° |
| 2026-05-04 14:54 | 29.20020 | 119.62723 | 25712 ft | 449 kts | 191° |
| 2026-05-04 14:55 | 29.16901 | 119.62534 | 25713 ft | 450 kts | 191° |
| 2026-05-04 14:55 | 29.13776 | 119.62345 | 25710 ft | 450 kts | 191° |
| 2026-05-04 14:55 | 29.10646 | 119.62155 | 25710 ft | 450 kts | 191° |
| 2026-05-04 14:55 | 29.07519 | 119.61964 | 25712 ft | 450 kts | 191° |
| 2026-05-04 14:56 | 29.04391 | 119.61770 | 25715 ft | 450 kts | 191° |
| 2026-05-04 14:56 | 29.01265 | 119.61576 | 25716 ft | 450 kts | 191° |
| 2026-05-04 14:56 | 28.98138 | 119.61380 | 25717 ft | 450 kts | 191° |
| 2026-05-04 14:56 | 28.95010 | 119.61185 | 25721 ft | 450 kts | 191° |
| 2026-05-04 14:57 | 28.91880 | 119.60990 | 25721 ft | 450 kts | 191° |
| 2026-05-04 14:57 | 28.88751 | 119.60796 | 25724 ft | 450 kts | 191° |
| 2026-05-04 14:57 | 28.85612 | 119.60600 | 25727 ft | 452 kts | 191° |
| 2026-05-04 14:57 | 28.82473 | 119.60404 | 25726 ft | 452 kts | 191° |
| 2026-05-04 14:58 | 28.79331 | 119.60209 | 25727 ft | 451 kts | 191° |
| 2026-05-04 14:58 | 28.76191 | 119.60015 | 25733 ft | 452 kts | 191° |
| 2026-05-04 14:58 | 28.73045 | 119.59821 | 25728 ft | 452 kts | 191° |
| 2026-05-04 14:58 | 28.69908 | 119.59627 | 25729 ft | 451 kts | 191° |
| 2026-05-04 14:59 | 28.66770 | 119.59433 | 25732 ft | 451 kts | 191° |
| 2026-05-04 14:59 | 28.63634 | 119.59239 | 25736 ft | 451 kts | 191° |
| 2026-05-04 14:59 | 28.57357 | 119.58852 | 25738 ft | 452 kts | 191° |
| 2026-05-04 15:00 | 28.54214 | 119.58659 | 25739 ft | 452 kts | 191° |
| 2026-05-04 15:00 | 28.51068 | 119.58465 | 25741 ft | 453 kts | 191° |
| 2026-05-04 15:00 | 28.47925 | 119.58271 | 25738 ft | 453 kts | 191° |
| 2026-05-04 15:01 | 28.41636 | 119.57901 | 25753 ft | 452 kts | 191° |
| 2026-05-04 15:01 | 28.38497 | 119.57727 | 25746 ft | 453 kts | 191° |
| 2026-05-04 15:01 | 28.35338 | 119.57553 | 25755 ft | 454 kts | 191° |
| 2026-05-04 15:01 | 28.32191 | 119.57381 | 25744 ft | 453 kts | 191° |
| 2026-05-04 15:02 | 28.29035 | 119.57209 | 25744 ft | 453 kts | 191° |
| 2026-05-04 15:02 | 28.25891 | 119.57037 | 25754 ft | 454 kts | 191° |
| 2026-05-04 15:02 | 28.22732 | 119.56863 | 25746 ft | 453 kts | 191° |
| 2026-05-04 15:02 | 28.19580 | 119.56689 | 25751 ft | 453 kts | 191° |
| 2026-05-04 15:03 | 28.16428 | 119.56515 | 25753 ft | 453 kts | 191° |
| 2026-05-04 15:03 | 28.13285 | 119.56341 | 25756 ft | 453 kts | 191° |
| 2026-05-04 15:03 | 28.10137 | 119.56175 | 25755 ft | 453 kts | 190° |
| 2026-05-04 15:03 | 28.06976 | 119.56069 | 25758 ft | 454 kts | 189° |
| 2026-05-04 15:04 | 28.03827 | 119.56010 | 25759 ft | 455 kts | 189° |
| 2026-05-04 15:04 | 28.00647 | 119.55972 | 25759 ft | 455 kts | 188° |
| 2026-05-04 15:04 | 27.97479 | 119.55942 | 25761 ft | 455 kts | 188° |
| 2026-05-04 15:04 | 27.94312 | 119.55910 | 25765 ft | 455 kts | 188° |
| 2026-05-04 15:05 | 27.91149 | 119.55879 | 25763 ft | 455 kts | 188° |
| 2026-05-04 15:05 | 27.87982 | 119.55857 | 25763 ft | 454 kts | 188° |
| 2026-05-04 15:05 | 27.84846 | 119.55841 | 25768 ft | 454 kts | 188° |
| 2026-05-04 15:05 | 27.81661 | 119.55826 | 25771 ft | 454 kts | 188° |
| 2026-05-04 15:06 | 27.78502 | 119.55811 | 25768 ft | 454 kts | 188° |
| 2026-05-04 15:06 | 27.75341 | 119.55795 | 25766 ft | 454 kts | 188° |
| 2026-05-04 15:06 | 27.72198 | 119.55778 | 25770 ft | 454 kts | 188° |
| 2026-05-04 15:07 | 27.65863 | 119.55743 | 25765 ft | 454 kts | 188° |
| 2026-05-04 15:07 | 27.62702 | 119.55725 | 25772 ft | 454 kts | 188° |
| 2026-05-04 15:07 | 27.59544 | 119.55707 | 25776 ft | 454 kts | 188° |
| 2026-05-04 15:07 | 27.56390 | 119.55688 | 25773 ft | 453 kts | 188° |
| 2026-05-04 15:08 | 27.53231 | 119.55669 | 25770 ft | 454 kts | 188° |
| 2026-05-04 15:08 | 27.50068 | 119.55650 | 25773 ft | 454 kts | 188° |
| 2026-05-04 15:08 | 27.46909 | 119.55632 | 25775 ft | 454 kts | 188° |
| 2026-05-04 15:08 | 27.43798 | 119.55615 | 25778 ft | 453 kts | 188° |
| 2026-05-04 15:09 | 27.40637 | 119.55603 | 25776 ft | 454 kts | 188° |
| 2026-05-04 15:09 | 27.37483 | 119.55596 | 25778 ft | 454 kts | 188° |
| 2026-05-04 15:09 | 27.34323 | 119.55592 | 25781 ft | 454 kts | 188° |
| 2026-05-04 15:10 | 27.27993 | 119.55586 | 25777 ft | 454 kts | 188° |
| 2026-05-04 15:10 | 27.24835 | 119.55580 | 25775 ft | 454 kts | 188° |
| 2026-05-04 15:10 | 27.18517 | 119.55544 | 25774 ft | 455 kts | 188° |
| 2026-05-04 15:11 | 27.15358 | 119.55522 | 25777 ft | 454 kts | 188° |
| 2026-05-04 15:11 | 27.12187 | 119.55499 | 25779 ft | 454 kts | 188° |
| 2026-05-04 15:11 | 27.09032 | 119.55477 | 25774 ft | 454 kts | 188° |
| 2026-05-04 15:11 | 27.05868 | 119.55455 | 25775 ft | 454 kts | 188° |
| 2026-05-04 15:12 | 27.02704 | 119.55434 | 25777 ft | 454 kts | 188° |
| 2026-05-04 15:12 | 26.99537 | 119.55413 | 25773 ft | 455 kts | 188° |
| 2026-05-04 15:12 | 26.96371 | 119.55393 | 25777 ft | 455 kts | 188° |
| 2026-05-04 15:12 | 26.93214 | 119.55374 | 25774 ft | 455 kts | 188° |
| 2026-05-04 15:13 | 26.90050 | 119.55354 | 25772 ft | 455 kts | 188° |
| 2026-05-04 15:13 | 26.86881 | 119.55334 | 25773 ft | 455 kts | 188° |
| 2026-05-04 15:13 | 26.83720 | 119.55314 | 25772 ft | 455 kts | 188° |
| 2026-05-04 15:13 | 26.80578 | 119.55294 | 25768 ft | 455 kts | 188° |
| 2026-05-04 15:14 | 26.77390 | 119.55273 | 25782 ft | 455 kts | 188° |
| 2026-05-04 15:14 | 26.74217 | 119.55252 | 25771 ft | 455 kts | 188° |
| 2026-05-04 15:14 | 26.71052 | 119.55232 | 25770 ft | 455 kts | 188° |
| 2026-05-04 15:14 | 26.67881 | 119.55212 | 25767 ft | 454 kts | 188° |
| 2026-05-04 15:15 | 26.64715 | 119.55192 | 25769 ft | 454 kts | 188° |
| 2026-05-04 15:15 | 26.61557 | 119.55171 | 25768 ft | 454 kts | 188° |
| 2026-05-04 15:15 | 26.58390 | 119.55152 | 25765 ft | 456 kts | 188° |
| 2026-05-04 15:16 | 26.52049 | 119.55114 | 25762 ft | 454 kts | 188° |
| 2026-05-04 15:16 | 26.48933 | 119.55095 | 25764 ft | 452 kts | 188° |
| 2026-05-04 15:16 | 26.42648 | 119.55054 | 25765 ft | 451 kts | 188° |
| 2026-05-04 15:17 | 26.39504 | 119.55034 | 25758 ft | 451 kts | 188° |
| 2026-05-04 15:17 | 26.33225 | 119.54972 | 25759 ft | 451 kts | 188° |
| 2026-05-04 15:17 | 26.30088 | 119.54933 | 25759 ft | 451 kts | 188° |
| 2026-05-04 15:18 | 26.26952 | 119.54894 | 25759 ft | 451 kts | 188° |
| 2026-05-04 15:18 | 26.23830 | 119.54790 | 25757 ft | 446 kts | 192° |
| 2026-05-04 15:18 | 26.20796 | 119.54244 | 25753 ft | 439 kts | 200° |
| 2026-05-04 15:19 | 26.14914 | 119.52498 | 25750 ft | 435 kts | 203° |
| 2026-05-04 15:19 | 26.12022 | 119.51519 | 25746 ft | 434 kts | 204° |
| 2026-05-04 15:19 | 26.06257 | 119.49507 | 25751 ft | 435 kts | 204° |
| 2026-05-04 15:20 | 26.03371 | 119.48501 | 25755 ft | 435 kts | 204° |
| 2026-05-04 15:20 | 26.00473 | 119.47500 | 25751 ft | 436 kts | 204° |
| 2026-05-04 15:20 | 25.97576 | 119.46506 | 25755 ft | 436 kts | 204° |
| 2026-05-04 15:20 | 25.94696 | 119.45494 | 25754 ft | 434 kts | 206° |
| 2026-05-04 15:21 | 25.91942 | 119.44176 | 25751 ft | 427 kts | 213° |
| 2026-05-04 15:21 | 25.89442 | 119.42441 | 25747 ft | 421 kts | 221° |
| 2026-05-04 15:21 | 25.84874 | 119.38399 | 25752 ft | 419 kts | 224° |
| 2026-05-04 15:22 | 25.82632 | 119.36334 | 25755 ft | 419 kts | 224° |
| 2026-05-04 15:22 | 25.80387 | 119.34262 | 25755 ft | 419 kts | 224° |
| 2026-05-04 15:22 | 25.75902 | 119.30127 | 25759 ft | 419 kts | 224° |
| 2026-05-04 15:23 | 25.73659 | 119.28059 | 25760 ft | 419 kts | 224° |
| 2026-05-04 15:23 | 25.71410 | 119.25988 | 25757 ft | 419 kts | 224° |
| 2026-05-04 15:23 | 25.69166 | 119.23922 | 25758 ft | 419 kts | 224° |
| 2026-05-04 15:23 | 25.66922 | 119.21857 | 25757 ft | 419 kts | 224° |
| 2026-05-04 15:24 | 25.62427 | 119.17725 | 25729 ft | 419 kts | 224° |
| 2026-05-04 15:24 | 25.57961 | 119.13625 | 25756 ft | 420 kts | 224° |
| 2026-05-04 15:25 | 25.55714 | 119.11563 | 25746 ft | 420 kts | 224° |
| 2026-05-04 15:25 | 25.53462 | 119.09495 | 25751 ft | 420 kts | 224° |
| 2026-05-04 15:25 | 25.51210 | 119.07430 | 25751 ft | 419 kts | 224° |
| 2026-05-04 15:26 | 25.46716 | 119.03314 | 25750 ft | 419 kts | 224° |
| 2026-05-04 15:26 | 25.44474 | 119.01263 | 25463 ft | 415 kts | 224° |
| 2026-05-04 15:26 | 25.39997 | 118.97166 | 23419 ft | 424 kts | 223° |
| 2026-05-04 15:27 | 25.37713 | 118.95077 | 22423 ft | 425 kts | 223° |
| 2026-05-04 15:27 | 25.33295 | 118.90754 | 20860 ft | 412 kts | 229° |
| 2026-05-04 15:28 | 25.30057 | 118.86894 | 19601 ft | 404 kts | 230° |
| 2026-05-04 15:28 | 25.28176 | 118.84609 | 18862 ft | 400 kts | 230° |
| 2026-05-04 15:28 | 25.24458 | 118.80097 | 17246 ft | 393 kts | 230° |
| 2026-05-04 15:29 | 25.22621 | 118.77875 | 16450 ft | 389 kts | 230° |
| 2026-05-04 15:30 | 25.15444 | 118.69207 | 13262 ft | 376 kts | 230° |
| 2026-05-04 15:30 | 25.10212 | 118.62903 | 10810 ft | 367 kts | 230° |
| 2026-05-04 15:31 | 25.06733 | 118.58848 | 9552 ft | 354 kts | 229° |
| 2026-05-04 15:31 | 25.05067 | 118.56935 | 9269 ft | 338 kts | 229° |
| 2026-05-04 15:32 | 25.00511 | 118.51705 | 8621 ft | 293 kts | 229° |
| 2026-05-04 15:32 | 24.97795 | 118.48590 | 8127 ft | 274 kts | 228° |
| 2026-05-04 15:33 | 24.95166 | 118.45580 | 7242 ft | 274 kts | 227° |
| 2026-05-04 15:34 | 24.91235 | 118.41081 | 6866 ft | 272 kts | 227° |
| 2026-05-04 15:34 | 24.89919 | 118.39576 | 6866 ft | 272 kts | 227° |
| 2026-05-04 15:34 | 24.87302 | 118.36584 | 6866 ft | 271 kts | 227° |
| 2026-05-04 15:35 | 24.84859 | 118.33791 | 6858 ft | 271 kts | 227° |
| 2026-05-04 15:35 | 24.83554 | 118.32301 | 6863 ft | 270 kts | 227° |
| 2026-05-04 15:35 | 24.82246 | 118.30806 | 6856 ft | 270 kts | 227° |
| 2026-05-04 15:36 | 24.79635 | 118.27826 | 6852 ft | 270 kts | 227° |
| 2026-05-04 15:36 | 24.78331 | 118.26339 | 6851 ft | 270 kts | 227° |
| 2026-05-04 15:36 | 24.77028 | 118.24852 | 6850 ft | 270 kts | 227° |
| 2026-05-04 15:37 | 24.75726 | 118.23368 | 6846 ft | 270 kts | 227° |
| 2026-05-04 15:37 | 24.74419 | 118.21879 | 6847 ft | 270 kts | 228° |
| 2026-05-04 15:37 | 24.73115 | 118.20394 | 6847 ft | 269 kts | 227° |
| 2026-05-04 15:37 | 24.71812 | 118.18910 | 6841 ft | 269 kts | 228° |
| 2026-05-04 15:38 | 24.70511 | 118.17428 | 6839 ft | 269 kts | 227° |
| 2026-05-04 15:38 | 24.69209 | 118.15946 | 6842 ft | 269 kts | 228° |
| 2026-05-04 15:38 | 24.67907 | 118.14464 | 6822 ft | 269 kts | 227° |
| 2026-05-04 15:38 | 24.66608 | 118.12986 | 6596 ft | 269 kts | 227° |
| 2026-05-04 15:39 | 24.65307 | 118.11507 | 6359 ft | 269 kts | 227° |
| 2026-05-04 15:39 | 24.64022 | 118.10047 | 6103 ft | 269 kts | 227° |
| 2026-05-04 15:39 | 24.61419 | 118.07090 | 5853 ft | 270 kts | 227° |
| 2026-05-04 15:40 | 24.60091 | 118.05582 | 5737 ft | 271 kts | 227° |
| 2026-05-04 15:40 | 24.58801 | 118.04116 | 5502 ft | 271 kts | 227° |
| 2026-05-04 15:40 | 24.57469 | 118.02603 | 5255 ft | 272 kts | 226° |
| 2026-05-04 15:40 | 24.56198 | 118.01121 | 5103 ft | 260 kts | 228° |
| 2026-05-04 15:41 | 24.55004 | 117.99683 | 4987 ft | 248 kts | 228° |
| 2026-05-04 15:41 | 24.53888 | 117.98330 | 4910 ft | 233 kts | 228° |
| 2026-05-04 15:41 | 24.52816 | 117.97027 | 4852 ft | 229 kts | 228° |
| 2026-05-04 15:41 | 24.51761 | 117.95745 | 4839 ft | 230 kts | 228° |
| 2026-05-04 15:42 | 24.50675 | 117.94424 | 4837 ft | 230 kts | 228° |
| 2026-05-04 15:42 | 24.49631 | 117.93157 | 4836 ft | 214 kts | 228° |
| 2026-05-04 15:42 | 24.48664 | 117.91983 | 4732 ft | 202 kts | 228° |
| 2026-05-04 15:42 | 24.47726 | 117.90848 | 4609 ft | 200 kts | 226° |
| 2026-05-04 15:43 | 24.46612 | 117.89935 | 4484 ft | 206 kts | 199° |
| 2026-05-04 15:43 | 24.45174 | 117.89905 | 4330 ft | 213 kts | 156° |
| 2026-05-04 15:43 | 24.43901 | 117.90732 | 4101 ft | 213 kts | 140° |
| 2026-05-04 15:43 | 24.42744 | 117.91736 | 3828 ft | 209 kts | 137° |
| 2026-05-04 15:44 | 24.41912 | 117.92947 | 3567 ft | 193 kts | 100° |
| 2026-05-04 15:44 | 24.41981 | 117.94353 | 3350 ft | 181 kts | 72° |
| 2026-05-04 15:44 | 24.42410 | 117.95611 | 3095 ft | 176 kts | 64° |
| 2026-05-04 15:44 | 24.43019 | 117.96733 | 2941 ft | 165 kts | 54° |
| 2026-05-04 15:45 | 24.43664 | 117.97677 | 2921 ft | 143 kts | 53° |
| 2026-05-04 15:45 | 24.44250 | 117.98494 | 2946 ft | 131 kts | 53° |
| 2026-05-04 15:45 | 24.44804 | 117.99281 | 2877 ft | 131 kts | 53° |
| 2026-05-04 15:45 | 24.45359 | 118.00072 | 2678 ft | 130 kts | 52° |
| 2026-05-04 15:46 | 24.45915 | 118.00853 | 2493 ft | 130 kts | 52° |
| 2026-05-04 15:46 | 24.46473 | 118.01633 | 2304 ft | 129 kts | 51° |
| 2026-05-04 15:46 | 24.47027 | 118.02409 | 2136 ft | 129 kts | 52° |
| 2026-05-04 15:46 | 24.47579 | 118.03183 | 1998 ft | 126 kts | 51° |
| 2026-05-04 15:47 | 24.48119 | 118.03941 | 1803 ft | 125 kts | 51° |
| 2026-05-04 15:47 | 24.48661 | 118.04701 | 1624 ft | 126 kts | 51° |
| 2026-05-04 15:47 | 24.49201 | 118.05459 | 1449 ft | 126 kts | 50° |
| 2026-05-04 15:47 | 24.49744 | 118.06221 | 1282 ft | 126 kts | 50° |
| 2026-05-04 15:48 | 24.50284 | 118.06979 | 1105 ft | 126 kts | 50° |
| 2026-05-04 15:48 | 24.50824 | 118.07736 | 957 ft | 125 kts | 50° |
| 2026-05-04 15:48 | 24.51888 | 118.09231 | 660 ft | 125 kts | 49° |
| 2026-05-04 15:49 | 24.52432 | 118.09992 | 511 ft | 128 kts | 51° |
| 2026-05-04 15:49 | 24.52974 | 118.10752 | 308 ft | 126 kts | 52° |
| 2026-05-04 15:49 | 24.53519 | 118.11507 | 132 ft | 126 kts | 50° |
| 2026-05-04 15:49 | 24.54051 | 118.12251 | 49 ft | 115 kts | 51° |
| 2026-05-04 15:50 | 24.54421 | 118.12773 | 47 ft | 58 kts | 52° |
| 2026-05-04 15:50 | 24.54593 | 118.13013 | 47 ft | 37 kts | 52° |
| 2026-05-04 15:50 | 24.54703 | 118.13254 | 48 ft | 35 kts | 76° |
| 2026-05-04 15:50 | 24.54699 | 118.13393 | 46 ft | 10 kts | 152° |
| 2026-05-04 15:51 | 24.54644 | 118.13439 | 48 ft | 10 kts | 142° |
| 2026-05-04 15:51 | 24.54587 | 118.13488 | 48 ft | 11 kts | 143° |
| 2026-05-04 15:51 | 24.54526 | 118.13472 | 48 ft | 10 kts | 224° |
| 2026-05-04 15:51 | 24.54484 | 118.13414 | 45 ft | 10 kts | 231° |
| 2026-05-04 15:52 | 24.54431 | 118.13339 | 48 ft | 16 kts | 232° |